createdAt,value
2019-06-08T00:02:24.184Z,98405.98
2019-06-08T00:04:50.890Z,98418.03
2019-06-08T00:07:20.792Z,98425.52
2019-06-08T00:09:47.411Z,98422.47
2019-06-08T00:12:14.797Z,98421.30
2019-06-08T00:14:41.354Z,98430.14
2019-06-08T00:17:07.925Z,98419.50
2019-06-08T00:19:34.439Z,98422.75
2019-06-08T00:22:01.410Z,98433.13
2019-06-08T00:24:28.144Z,98443.77
2019-06-08T00:26:54.612Z,98448.19
2019-06-08T00:29:22.422Z,98460.59
2019-06-08T00:31:51.167Z,98475.73
2019-06-08T00:34:18.480Z,98466.17
2019-06-08T00:36:45.325Z,98468.41
2019-06-08T00:39:12.294Z,98469.39
2019-06-08T00:41:38.838Z,98467.30
2019-06-08T00:44:05.394Z,98473.59
2019-06-08T00:46:32.198Z,98493.00
2019-06-08T00:48:58.931Z,98496.10
2019-06-08T00:51:26.684Z,98492.98
2019-06-08T00:53:53.166Z,98502.64
2019-06-08T00:56:19.673Z,98488.56
2019-06-08T00:58:46.218Z,98491.86
2019-06-08T01:01:20.182Z,98496.42
2019-06-08T01:03:45.490Z,98505.25
2019-06-08T01:06:11.997Z,98511.12
2019-06-08T01:08:38.476Z,98505.72
2019-06-08T01:11:05.058Z,98511.33
2019-06-08T01:13:31.516Z,98505.66
2019-06-08T01:15:58.018Z,98504.14
2019-06-08T01:18:25.893Z,98485.45
2019-06-08T01:20:52.479Z,98475.01
2019-06-08T01:23:19.513Z,98482.92
2019-06-08T01:25:46.306Z,98474.09
2019-06-08T01:28:13.046Z,98463.66
2019-06-08T01:30:45.815Z,98467.34
2019-06-08T01:33:12.659Z,98463.91
2019-06-08T01:35:39.178Z,98474.00
2019-06-08T01:38:05.906Z,98501.78
2019-06-08T01:40:32.413Z,98504.34
2019-06-08T01:42:59.152Z,98499.84
2019-06-08T01:45:32.821Z,98507.06
2019-06-08T01:48:00.096Z,98500.98
2019-06-08T01:50:27.038Z,98510.75
2019-06-08T01:52:54.818Z,98502.48
2019-06-08T01:55:21.347Z,98492.13
2019-06-08T01:57:48.095Z,98484.41
2019-06-08T02:00:35.890Z,98488.06
2019-06-08T02:02:45.344Z,98495.30
2019-06-08T02:05:12.126Z,98498.91
2019-06-08T02:07:38.702Z,98497.35
2019-06-08T02:10:05.754Z,98491.75
2019-06-08T02:12:33.124Z,98489.50
2019-06-08T02:14:59.665Z,98492.48
2019-06-08T02:17:27.325Z,98500.74
2019-06-08T02:19:53.867Z,98499.81
2019-06-08T02:22:20.661Z,98492.84
2019-06-08T02:24:47.150Z,98494.61
2019-06-08T02:27:13.935Z,98499.02
2019-06-08T02:29:40.433Z,98498.67
2019-06-08T02:32:07.039Z,98498.16
2019-06-08T02:34:35.855Z,98499.02
2019-06-08T02:37:01.948Z,98505.27
2019-06-08T02:39:28.608Z,98513.57
2019-06-08T02:41:55.039Z,98510.42
2019-06-08T02:44:22.827Z,98511.45
2019-06-08T02:46:49.672Z,98505.21
2019-06-08T02:49:16.205Z,98495.23
2019-06-08T02:51:43.349Z,98489.68
2019-06-08T02:54:10.006Z,98491.11
2019-06-08T02:56:39.282Z,98493.47
2019-06-08T02:59:07.139Z,98499.47
2019-06-08T03:01:36.005Z,98501.54
2019-06-08T03:04:05.159Z,98497.00
2019-06-08T03:06:34.662Z,98502.56
2019-06-08T03:09:04.311Z,98501.36
2019-06-08T03:11:32.633Z,98501.95
2019-06-08T03:14:01.442Z,98511.28
2019-06-08T03:16:28.051Z,98507.73
2019-06-08T03:18:54.808Z,98520.39
2019-06-08T03:21:21.557Z,98525.48
2019-06-08T03:23:48.262Z,98521.53
2019-06-08T03:26:15.989Z,98532.41
2019-06-08T03:28:44.367Z,98555.73
2019-06-08T03:31:10.980Z,98565.77
2019-06-08T03:33:45.393Z,98572.77
2019-06-08T03:36:06.393Z,98572.08
2019-06-08T03:38:33.796Z,98593.00
2019-06-08T03:41:00.576Z,98596.44
2019-06-08T03:43:27.202Z,98598.44
2019-06-08T03:45:54.884Z,98602.11
2019-06-08T03:48:21.434Z,98590.53
2019-06-08T03:50:47.930Z,98591.37
2019-06-08T03:53:14.716Z,98593.63
2019-06-08T03:55:42.965Z,98578.58
2019-06-08T03:58:10.478Z,98567.97
2019-06-08T04:00:38.218Z,98567.80
2019-06-08T04:03:04.977Z,98570.02
2019-06-08T04:05:31.672Z,98573.34
2019-06-08T04:07:58.195Z,98597.86
2019-06-08T04:10:24.731Z,98577.14
2019-06-08T04:12:51.279Z,98566.08
2019-06-08T04:15:18.348Z,98555.44
2019-06-08T04:17:46.856Z,98576.09
2019-06-08T04:20:13.481Z,98579.99
2019-06-08T04:22:44.705Z,98568.72
2019-06-08T04:25:12.446Z,98575.20
2019-06-08T04:27:40.451Z,98568.61
2019-06-08T04:30:07.683Z,98559.63
2019-06-08T04:32:34.289Z,98571.85
2019-06-08T04:35:01.373Z,98556.52
2019-06-08T04:37:28.364Z,98561.29
2019-06-08T04:39:54.846Z,98552.16
2019-06-08T04:42:21.639Z,98545.64
2019-06-08T04:44:49.420Z,98555.86
2019-06-08T04:47:16.311Z,98570.25
2019-06-08T04:49:46.671Z,98607.36
2019-06-08T04:52:13.293Z,98613.09
2019-06-08T04:54:40.770Z,98624.81
2019-06-08T04:57:07.561Z,98642.44
2019-06-08T04:59:34.094Z,98610.34
2019-06-08T05:02:03.007Z,98613.30
2019-06-08T05:04:51.471Z,98645.40
2019-06-08T05:07:18.131Z,98657.16
2019-06-08T05:09:45.192Z,98662.77
2019-06-08T05:12:14.289Z,98680.03
2019-06-08T05:14:41.363Z,98688.19
2019-06-08T05:17:08.085Z,98704.42
2019-06-08T05:19:35.126Z,98712.34
2019-06-08T05:22:02.177Z,98708.90
2019-06-08T05:24:28.922Z,98703.69
2019-06-08T05:26:55.411Z,98708.06
2019-06-08T05:29:21.898Z,98702.38
2019-06-08T05:31:49.824Z,98721.63
2019-06-08T05:34:16.511Z,98714.91
2019-06-08T05:36:43.416Z,98685.86
2019-06-08T05:39:09.896Z,98719.66
2019-06-08T05:41:36.550Z,98739.07
2019-06-08T05:44:06.093Z,98732.14
2019-06-08T05:46:34.830Z,98741.72
2019-06-08T05:49:01.797Z,98756.70
2019-06-08T05:51:28.313Z,98754.50
2019-06-08T05:53:54.853Z,98746.34
2019-06-08T05:56:21.533Z,98742.69
2019-06-08T05:58:50.320Z,98741.58
2019-06-08T06:01:17.418Z,98728.48
2019-06-08T06:03:46.317Z,98730.41
2019-06-08T06:06:13.073Z,98753.03
2019-06-08T06:08:40.368Z,98769.45
2019-06-08T06:11:06.897Z,98791.38
2019-06-08T06:13:33.411Z,98778.72
2019-06-08T06:16:00.233Z,98775.69
2019-06-08T06:18:26.960Z,98786.27
2019-06-08T06:21:07.381Z,98800.28
2019-06-08T06:23:22.017Z,98792.34
2019-06-08T06:25:49.699Z,98769.03
2019-06-08T06:28:16.671Z,98766.96
2019-06-08T06:30:44.179Z,98757.36
2019-06-08T06:33:10.915Z,98796.45
2019-06-08T06:35:37.557Z,98805.52
2019-06-08T06:38:04.232Z,98817.34
2019-06-08T06:40:30.980Z,98781.48
2019-06-08T06:42:57.545Z,98793.66
2019-06-08T06:45:24.250Z,98793.16
2019-06-08T06:47:52.708Z,98794.79
2019-06-08T06:50:19.332Z,98800.30
2019-06-08T06:52:46.668Z,98796.28
2019-06-08T06:55:13.388Z,98803.17
2019-06-08T06:57:40.179Z,98824.81
2019-06-08T07:00:08.278Z,98824.48
2019-06-08T07:02:35.988Z,98807.66
2019-06-08T07:05:03.091Z,98829.19
2019-06-08T07:07:29.649Z,98843.07
2019-06-08T07:09:56.516Z,98848.58
2019-06-08T07:12:23.102Z,98853.78
2019-06-08T07:14:51.262Z,98858.53
2019-06-08T07:17:17.908Z,98859.02
2019-06-08T07:19:44.426Z,98858.05
2019-06-08T07:22:11.234Z,98856.29
2019-06-08T07:24:37.791Z,98855.98
2019-06-08T07:27:07.384Z,98864.33
2019-06-08T07:29:33.192Z,98864.52
2019-06-08T07:31:59.861Z,98866.78
2019-06-08T07:34:26.686Z,98858.66
2019-06-08T07:36:53.460Z,98860.67
2019-06-08T07:39:20.027Z,98872.08
2019-06-08T07:41:47.449Z,98865.85
2019-06-08T07:44:14.975Z,98871.26
2019-06-08T07:46:43.683Z,98872.51
2019-06-08T07:49:10.192Z,98883.41
2019-06-08T07:51:36.816Z,98867.89
2019-06-08T07:54:03.480Z,98880.05
2019-06-08T07:56:34.482Z,98869.80
2019-06-08T07:59:05.426Z,98882.45
2019-06-08T08:01:36.297Z,98889.91
2019-06-08T08:04:01.418Z,98894.55
2019-06-08T08:06:31.375Z,98907.23
2019-06-08T08:08:58.882Z,98901.86
2019-06-08T08:11:25.468Z,98897.14
2019-06-08T08:13:54.831Z,98895.84
2019-06-08T08:16:21.683Z,98908.44
2019-06-08T08:18:49.024Z,98911.16
2019-06-08T08:21:23.176Z,98911.59
2019-06-08T08:23:44.434Z,98904.20
2019-06-08T08:26:11.498Z,98899.97
2019-06-08T08:28:38.046Z,98905.95
2019-06-08T08:31:04.506Z,98917.36
2019-06-08T08:33:31.034Z,98908.79
2019-06-08T08:36:00.610Z,98910.92
2019-06-08T08:38:27.347Z,98888.47
2019-06-08T08:40:56.153Z,98893.94
2019-06-08T08:43:23.174Z,98891.84
2019-06-08T08:46:04.314Z,98889.09
2019-06-08T08:48:39.994Z,98881.44
2019-06-08T08:51:08.573Z,98880.39
2019-06-08T08:53:37.535Z,98874.41
2019-06-08T08:56:04.743Z,98888.70
2019-06-08T08:58:31.608Z,98886.15
2019-06-08T09:01:01.544Z,98878.52
2019-06-08T09:03:33.075Z,98887.20
2019-06-08T09:06:01.348Z,98883.45
2019-06-08T09:08:27.778Z,98878.05
2019-06-08T09:10:55.384Z,98878.14
2019-06-08T09:13:22.683Z,98875.92
2019-06-08T09:15:49.210Z,98885.46
2019-06-08T09:18:15.820Z,98885.73
2019-06-08T09:20:47.893Z,98882.19
2019-06-08T09:23:22.618Z,98874.83
2019-06-08T09:25:49.144Z,98893.23
2019-06-08T09:28:18.356Z,98882.24
2019-06-08T09:30:44.643Z,98885.19
2019-06-08T09:33:11.152Z,98897.83
2019-06-08T09:35:37.987Z,98890.10
2019-06-08T09:38:05.127Z,98899.04
2019-06-08T09:40:32.607Z,98896.37
2019-06-08T09:43:10.400Z,98898.09
2019-06-08T09:45:38.037Z,98914.75
2019-06-08T09:48:05.763Z,98907.40
2019-06-08T09:50:34.959Z,98904.30
2019-06-08T09:53:15.447Z,98918.02
2019-06-08T09:55:38.150Z,98917.98
2019-06-08T09:58:26.002Z,98933.73
2019-06-08T10:00:54.514Z,98925.91
2019-06-08T10:03:23.440Z,98921.05
2019-06-08T10:05:49.951Z,98943.08
2019-06-08T10:08:20.354Z,98941.22
2019-06-08T10:10:48.231Z,98933.73
2019-06-08T10:13:14.111Z,98933.80
2019-06-08T10:15:41.828Z,98935.45
2019-06-08T10:18:08.526Z,98944.19
2019-06-08T10:20:35.142Z,98937.66
2019-06-08T10:23:27.173Z,98944.63
2019-06-08T10:25:40.123Z,98944.80
2019-06-08T10:28:11.317Z,98937.35
2019-06-08T10:30:35.351Z,98928.87
2019-06-08T10:33:04.774Z,98940.87
2019-06-08T10:35:30.529Z,98953.64
2019-06-08T10:38:01.529Z,98955.98
2019-06-08T10:40:25.774Z,98946.17
2019-06-08T10:42:52.462Z,98953.53
2019-06-08T10:45:19.910Z,98952.99
2019-06-08T10:47:47.932Z,98938.19
2019-06-08T10:50:15.911Z,98955.20
2019-06-08T10:52:43.924Z,98948.92
2019-06-08T10:55:12.212Z,98958.09
2019-06-08T10:57:40.269Z,98958.26
2019-06-08T11:00:23.210Z,98961.95
2019-06-08T11:02:42.488Z,98961.31
2019-06-08T11:05:12.515Z,98962.70
2019-06-08T11:07:40.861Z,98971.98
2019-06-08T11:10:10.824Z,98957.56
2019-06-08T11:12:37.686Z,98958.58
2019-06-08T11:15:05.022Z,98970.84
2019-06-08T11:17:32.100Z,98959.33
2019-06-08T11:20:00.488Z,98960.40
2019-06-08T11:22:29.184Z,98954.58
2019-06-08T11:24:58.443Z,98966.19
2019-06-08T11:27:24.680Z,98965.58
2019-06-08T11:29:51.893Z,98970.00
2019-06-08T11:32:18.705Z,98970.88
2019-06-08T11:34:45.330Z,98973.03
2019-06-08T11:37:23.511Z,98969.80
2019-06-08T11:39:50.090Z,98970.97
2019-06-08T11:42:18.917Z,98971.75
2019-06-08T11:44:45.257Z,98974.88
2019-06-08T11:47:13.421Z,98975.42
2019-06-08T11:49:40.271Z,98977.05
2019-06-08T11:52:13.417Z,98964.97
2019-06-08T11:54:44.391Z,98975.89
2019-06-08T11:57:12.892Z,98968.62
2019-06-08T11:59:41.207Z,98979.75
2019-06-08T12:02:10.772Z,98978.50
2019-06-08T12:04:38.444Z,98974.12
2019-06-08T12:07:05.039Z,98967.11
2019-06-08T12:09:32.228Z,98971.50
2019-06-08T12:11:58.829Z,98983.24
2019-06-08T12:14:33.795Z,98977.44
2019-06-08T12:17:01.322Z,98983.40
2019-06-08T12:19:37.546Z,98983.19
2019-06-08T12:22:03.860Z,98982.39
2019-06-08T12:24:41.961Z,98987.75
2019-06-08T12:27:10.737Z,98987.35
2019-06-08T12:29:31.611Z,98967.32
2019-06-08T12:32:00.455Z,98985.42
2019-06-08T12:34:38.217Z,98990.22
2019-06-08T12:37:14.519Z,98988.02
2019-06-08T12:39:39.061Z,98988.88
2019-06-08T12:42:09.610Z,99006.61
2019-06-08T12:44:34.647Z,98990.81
2019-06-08T12:47:01.423Z,98990.16
2019-06-08T12:49:29.985Z,98999.55
2019-06-08T12:51:58.152Z,99000.11
2019-06-08T12:54:24.913Z,98999.31
2019-06-08T12:56:52.562Z,98993.38
2019-06-08T12:59:22.779Z,98997.61
2019-06-08T13:01:49.879Z,99000.36
2019-06-08T13:04:21.369Z,98996.51
2019-06-08T13:06:48.225Z,99004.65
2019-06-08T13:09:14.710Z,99003.94
2019-06-08T13:11:43.011Z,99000.69
2019-06-08T13:14:20.857Z,99003.55
2019-06-08T13:16:55.694Z,99008.47
2019-06-08T13:19:22.339Z,99010.41
2019-06-08T13:21:48.856Z,99018.56
2019-06-08T13:24:20.154Z,99018.87
2019-06-08T13:27:04.664Z,99025.55
2019-06-08T13:29:31.254Z,99020.99
2019-06-08T13:31:58.678Z,99017.23
2019-06-08T13:34:35.398Z,99014.04
2019-06-08T13:37:02.083Z,99029.03
2019-06-08T13:39:28.653Z,99028.35
2019-06-08T13:41:55.162Z,99034.30
2019-06-08T13:44:21.937Z,99024.33
2019-06-08T13:46:48.551Z,99034.22
2019-06-08T13:49:18.567Z,99037.83
2019-06-08T13:51:43.749Z,99042.01
2019-06-08T13:54:10.289Z,99035.84
2019-06-08T13:56:38.661Z,99034.83
2019-06-08T13:59:07.822Z,99043.78
2019-06-08T14:01:34.177Z,99033.61
2019-06-08T14:04:04.070Z,99041.90
2019-06-08T14:06:33.870Z,99035.11
2019-06-08T14:09:01.647Z,99035.05
2019-06-08T14:11:28.563Z,99033.34
2019-06-08T14:13:55.061Z,99038.56
2019-06-08T14:16:23.789Z,99044.93
2019-06-08T14:18:53.120Z,99032.00
2019-06-08T14:21:25.689Z,99033.97
2019-06-08T14:23:48.489Z,99046.13
2019-06-08T14:26:20.257Z,99042.26
2019-06-08T14:29:10.551Z,99039.06
2019-06-08T14:31:39.942Z,99037.50
2019-06-08T14:34:10.019Z,99040.92
2019-06-08T14:36:34.989Z,99037.66
2019-06-08T14:39:02.603Z,99044.20
2019-06-08T14:41:31.464Z,99039.06
2019-06-08T14:43:58.588Z,99038.27
2019-06-08T14:46:30.311Z,99043.94
2019-06-08T14:48:58.449Z,99050.15
2019-06-08T14:51:29.045Z,99040.92
2019-06-08T14:53:58.268Z,99036.12
2019-06-08T14:56:25.135Z,99048.62
2019-06-08T14:58:51.749Z,99049.48
2019-06-08T15:01:20.054Z,99042.53
2019-06-08T15:03:48.179Z,99039.53
2019-06-08T15:06:19.319Z,99052.99
2019-06-08T15:08:50.083Z,99042.67
2019-06-08T15:11:14.962Z,99043.14
2019-06-08T15:13:41.463Z,99053.68
2019-06-08T15:16:08.410Z,99050.94
2019-06-08T15:18:38.570Z,99050.91
2019-06-08T15:21:20.671Z,99053.81
2019-06-08T15:24:20.658Z,99050.45
2019-06-08T15:26:27.067Z,99051.25
2019-06-08T15:28:48.571Z,99052.60
2019-06-08T15:31:17.949Z,99053.30
2019-06-08T15:33:45.034Z,99058.61
2019-06-08T15:36:14.673Z,99051.56
2019-06-08T15:38:41.456Z,99054.51
2019-06-08T15:41:07.987Z,99053.85
2019-06-08T15:43:37.588Z,99061.75
2019-06-08T15:46:03.023Z,99060.36
2019-06-08T15:48:32.207Z,99058.10
2019-06-08T15:50:58.503Z,99058.97
2019-06-08T15:53:29.073Z,99058.75
2019-06-08T15:56:38.164Z,99064.02
2019-06-08T15:58:58.427Z,99071.98
2019-06-08T16:01:25.094Z,99061.55
2019-06-08T16:03:54.150Z,99057.05
2019-06-08T16:06:20.661Z,99059.67
2019-06-08T16:08:48.426Z,99052.84
2019-06-08T16:11:14.966Z,99052.64
2019-06-08T16:13:41.752Z,99054.84
2019-06-08T16:16:08.368Z,99043.39
2019-06-08T16:18:35.988Z,99044.25
2019-06-08T16:21:03.306Z,99049.93
2019-06-08T16:23:30.031Z,99057.27
2019-06-08T16:25:56.558Z,99055.78
2019-06-08T16:28:29.979Z,99057.33
2019-06-08T16:31:28.965Z,99052.70
2019-06-08T16:34:00.362Z,99050.45
2019-06-08T16:36:27.337Z,99056.19
2019-06-08T16:38:54.050Z,99053.19
2019-06-08T16:41:20.779Z,99059.24
2019-06-08T16:43:47.270Z,99055.89
2019-06-08T16:46:13.834Z,99050.06
2019-06-08T16:48:40.368Z,99057.74
2019-06-08T16:51:07.057Z,99067.03
2019-06-08T16:53:34.157Z,99071.84
2019-06-08T16:56:00.723Z,99067.98
2019-06-08T16:58:27.862Z,99067.77
2019-06-08T17:00:56.856Z,99067.23
2019-06-08T17:03:26.819Z,99064.77
2019-06-08T17:05:53.604Z,99067.36
2019-06-08T17:08:20.288Z,99069.40
2019-06-08T17:10:55.157Z,99066.09
2019-06-08T17:13:21.714Z,99069.81
2019-06-08T17:15:48.243Z,99074.30
2019-06-08T17:18:14.730Z,99074.53
2019-06-08T17:20:41.844Z,99078.77
2019-06-08T17:23:08.483Z,99079.30
2019-06-08T17:25:34.981Z,99074.45
2019-06-08T17:28:07.670Z,99081.42
2019-06-08T17:30:35.693Z,99080.58
2019-06-08T17:33:16.765Z,99081.56
2019-06-08T17:35:43.561Z,99084.66
2019-06-08T17:38:20.711Z,99088.66
2019-06-08T17:40:47.248Z,99088.59
2019-06-08T17:43:14.806Z,99084.11
2019-06-08T17:45:42.757Z,99089.38
2019-06-08T17:48:09.909Z,99088.83
2019-06-08T17:50:36.790Z,99088.83
2019-06-08T17:53:03.957Z,99089.90
2019-06-08T17:55:30.573Z,99086.99
2019-06-08T17:57:57.069Z,99090.81
2019-06-08T18:00:24.746Z,99093.92
2019-06-08T18:02:51.742Z,99095.80
2019-06-08T18:05:28.334Z,99097.14
2019-06-08T18:07:57.681Z,99107.61
2019-06-08T18:10:27.304Z,99101.70
2019-06-08T18:12:53.667Z,99101.39
2019-06-08T18:15:20.226Z,99106.02
2019-06-08T18:17:51.873Z,99115.73
2019-06-08T18:20:18.146Z,99120.28
2019-06-08T18:22:49.053Z,99119.62
2019-06-08T18:25:17.367Z,99121.22
2019-06-08T18:28:04.714Z,99129.91
2019-06-08T18:30:13.862Z,99136.04
2019-06-08T18:32:40.996Z,99130.44
2019-06-08T18:35:08.906Z,99131.52
2019-06-08T18:37:51.720Z,99129.14
2019-06-08T18:40:31.907Z,99133.39
2019-06-08T18:42:59.554Z,99133.52
2019-06-08T18:45:31.850Z,99137.90
2019-06-08T18:48:12.454Z,99140.95
2019-06-08T18:50:40.773Z,99143.09
2019-06-08T18:53:08.891Z,99143.09
2019-06-08T18:55:43.595Z,99142.70
2019-06-08T18:58:21.291Z,99158.64
2019-06-08T19:00:41.982Z,99143.08
2019-06-08T19:03:07.975Z,99145.73
2019-06-08T19:05:34.839Z,99155.46
2019-06-08T19:08:03.067Z,99158.17
2019-06-08T19:10:37.819Z,99160.91
2019-06-08T19:13:09.979Z,99168.95
2019-06-08T19:15:41.837Z,99166.98
2019-06-08T19:18:08.157Z,99171.50
2019-06-08T19:20:34.994Z,99173.42
2019-06-08T19:23:01.535Z,99175.80
2019-06-08T19:25:28.303Z,99179.19
2019-06-08T19:27:54.847Z,99185.65
2019-06-08T19:30:24.592Z,99188.06
2019-06-08T19:32:52.240Z,99188.64
2019-06-08T19:35:27.213Z,99189.73
2019-06-08T19:37:54.069Z,99193.23
2019-06-08T19:40:20.731Z,99203.66
2019-06-08T19:42:56.885Z,99208.55
2019-06-08T19:45:18.179Z,99216.73
2019-06-08T19:47:45.046Z,99208.89
2019-06-08T19:50:13.419Z,99212.69
2019-06-08T19:52:42.069Z,99216.22
2019-06-08T19:55:09.590Z,99221.75
2019-06-08T19:57:36.219Z,99223.34
2019-06-08T20:00:03.862Z,99221.30
2019-06-08T20:02:32.356Z,99236.32
2019-06-08T20:04:58.872Z,99231.00
2019-06-08T20:07:28.026Z,99230.20
2019-06-08T20:09:57.008Z,99235.16
2019-06-08T20:12:23.019Z,99238.25
2019-06-08T20:14:51.044Z,99233.17
2019-06-08T20:17:19.368Z,99242.80
2019-06-08T20:19:48.028Z,99238.55
2019-06-08T20:22:18.262Z,99241.80
2019-06-08T20:24:46.375Z,99239.08
2019-06-08T20:27:13.546Z,99240.06
2019-06-08T20:29:41.267Z,99242.81
2019-06-08T20:32:08.431Z,99245.64
2019-06-08T20:34:35.054Z,99249.67
2019-06-08T20:37:02.163Z,99250.20
2019-06-08T20:39:29.703Z,99249.81
2019-06-08T20:41:58.593Z,99244.84
2019-06-08T20:44:24.934Z,99248.91
2019-06-08T20:46:52.801Z,99247.11
2019-06-08T20:49:20.670Z,99244.55
2019-06-08T20:51:49.430Z,99251.97
2019-06-08T20:54:18.710Z,99249.81
2019-06-08T20:56:50.901Z,99248.98
2019-06-08T20:59:29.552Z,99256.14
2019-06-08T21:01:52.152Z,99261.31
2019-06-08T21:04:18.204Z,99250.34
2019-06-08T21:07:12.381Z,99254.72
2019-06-08T21:09:38.936Z,99254.75
2019-06-08T21:12:05.433Z,99257.01
2019-06-08T21:14:31.914Z,99251.42
2019-06-08T21:16:58.791Z,99252.81
2019-06-08T21:19:27.934Z,99247.54
2019-06-08T21:21:58.944Z,99247.99
2019-06-08T21:24:27.942Z,99250.59
2019-06-08T21:26:55.847Z,99249.80
2019-06-08T21:29:22.566Z,99256.97
2019-06-08T21:31:52.271Z,99251.73
2019-06-08T21:34:18.340Z,99248.78
2019-06-08T21:36:45.057Z,99253.70
2019-06-08T21:39:12.210Z,99255.09
2019-06-08T21:41:39.072Z,99245.00
2019-06-08T21:44:07.772Z,99258.98
2019-06-08T21:46:35.074Z,99259.78
2019-06-08T21:49:27.691Z,99258.40
2019-06-08T21:51:54.584Z,99251.36
2019-06-08T21:54:21.136Z,99254.89
2019-06-08T21:56:49.965Z,99259.30
2019-06-08T21:59:18.138Z,99258.49
2019-06-08T22:01:50.417Z,99260.45
2019-06-08T22:04:18.496Z,99257.95
2019-06-08T22:06:54.607Z,99261.48
2019-06-08T22:09:21.202Z,99259.78
2019-06-08T22:11:47.669Z,99265.02
2019-06-08T22:14:14.310Z,99265.50
2019-06-08T22:16:41.900Z,99265.05
2019-06-08T22:19:08.360Z,99262.03
2019-06-08T22:21:37.552Z,99256.77
2019-06-08T22:24:03.683Z,99255.98
2019-06-08T22:26:30.338Z,99264.34
2019-06-08T22:28:58.401Z,99264.91
2019-06-08T22:31:27.606Z,99265.32
2019-06-08T22:33:54.331Z,99266.22
2019-06-08T22:36:27.473Z,99269.19
2019-06-08T22:38:54.454Z,99274.81
2019-06-08T22:41:21.051Z,99269.63
2019-06-08T22:43:49.577Z,99273.14
2019-06-08T22:46:17.816Z,99274.88
2019-06-08T22:48:44.723Z,99274.52
2019-06-08T22:51:11.267Z,99273.13
2019-06-08T22:53:38.386Z,99279.27
2019-06-08T22:56:07.659Z,99267.92
2019-06-08T22:58:33.677Z,99273.22
2019-06-08T23:01:06.496Z,99277.20
2019-06-08T23:03:30.897Z,99273.28
2019-06-08T23:05:59.734Z,99286.51
2019-06-08T23:08:26.027Z,99283.03
2019-06-08T23:10:52.589Z,99286.56
2019-06-08T23:13:19.090Z,99284.41
2019-06-08T23:15:47.626Z,99286.28
2019-06-08T23:18:14.216Z,99284.13
2019-06-08T23:20:40.710Z,99289.39
2019-06-08T23:23:08.954Z,99288.58
2019-06-08T23:25:37.293Z,99283.79
2019-06-08T23:28:09.562Z,99289.08
2019-06-08T23:30:43.865Z,99289.41
2019-06-08T23:33:11.640Z,99290.31
2019-06-08T23:36:07.667Z,99292.05
2019-06-08T23:38:08.117Z,99291.66
2019-06-08T23:40:35.174Z,99294.29
2019-06-08T23:43:03.010Z,99293.50
2019-06-08T23:45:30.075Z,99288.73
2019-06-08T23:47:58.404Z,99290.45
2019-06-08T23:50:27.245Z,99286.97
2019-06-08T23:52:53.567Z,99291.34
2019-06-08T23:55:20.264Z,99287.81
2019-06-08T23:57:46.771Z,99292.23
